Time;durP1;ratioP1;P1;durP2;ratioP2;P2;SDS_P1;SDS_P2;PMS_P1;PMS_P2;Temp;Humidity;BMP_temperature;BMP_pressure;BME280_temperature;BME280_humidity;BME280_pressure;Samples;Min_cycle;Max_cycle;Signal;HPM_P1;HPM_P2
2022/09/07 00:01:35;;;;;;;10.55;7.60;;;20.60;99.90;;;;;;5174926;27;20046;-69
2022/09/07 00:04:02;;;;;;;10.85;7.22;;;20.70;99.90;;;;;;5175209;27;20069;-70
2022/09/07 00:06:28;;;;;;;12.45;6.63;;;20.60;99.90;;;;;;5175763;27;20052;-70
2022/09/07 00:08:53;;;;;;;13.25;7.30;;;20.70;99.90;;;;;;5171440;27;20590;-70
2022/09/07 00:11:20;;;;;;;12.15;6.68;;;20.70;99.90;;;;;;5155197;27;20050;-70
2022/09/07 00:13:48;;;;;;;11.60;7.18;;;20.60;99.90;;;;;;5172761;27;20513;-70
2022/09/07 00:16:25;;;;;;;18.73;7.43;;;20.70;99.90;;;;;;5155769;27;20069;-70
2022/09/07 00:18:57;;;;;;;13.27;7.30;;;20.60;99.90;;;;;;5156174;27;20031;-70
2022/09/07 00:21:23;;;;;;;11.32;7.57;;;20.60;99.90;;;;;;5166578;27;20039;-70
2022/09/07 00:23:49;;;;;;;11.32;7.15;;;20.70;99.90;;;;;;5155053;27;20117;-70
2022/09/07 00:26:29;;;;;;;13.27;6.93;;;20.60;99.90;;;;;;5155843;27;20066;-70
2022/09/07 00:29:00;;;;;;;10.43;7.78;;;20.60;99.90;;;;;;5162398;27;20121;-69
2022/09/07 00:31:28;;;;;;;10.60;7.22;;;20.50;99.90;;;;;;5145189;27;20130;-70
2022/09/07 00:33:58;;;;;;;12.98;7.40;;;20.50;99.90;;;;;;5168289;27;20167;-70
2022/09/07 00:36:24;;;;;;;14.00;7.53;;;20.50;99.90;;;;;;5155728;27;20089;-70
2022/09/07 00:38:51;;;;;;;11.48;7.05;;;20.50;99.90;;;;;;5175077;27;20026;-69
2022/09/07 00:41:17;;;;;;;15.63;7.57;;;20.40;99.90;;;;;;5175600;27;20030;-70
2022/09/07 00:43:48;;;;;;;14.15;7.78;;;20.50;99.90;;;;;;5154650;27;20397;-70
2022/09/07 00:46:19;;;;;;;10.80;7.50;;;20.40;99.90;;;;;;5166078;27;20425;-69
2022/09/07 00:49:07;;;;;;;11.68;7.43;;;20.40;99.90;;;;;;5147924;27;20053;-70
2022/09/07 00:51:44;;;;;;;11.13;7.68;;;20.30;99.90;;;;;;5173196;27;20038;-70
2022/09/07 00:54:16;;;;;;;10.40;7.53;;;20.20;99.90;;;;;;5153731;27;20034;-70
2022/09/07 00:56:43;;;;;;;9.55;7.22;;;20.30;99.90;;;;;;5155254;27;20073;-69
2022/09/07 00:59:12;;;;;;;12.35;7.50;;;20.20;99.90;;;;;;5155883;27;20035;-70
2022/09/07 01:01:38;;;;;;;12.98;8.30;;;20.30;99.90;;;;;;5173653;27;20054;-70
2022/09/07 01:04:04;;;;;;;8.80;7.85;;;20.10;99.90;;;;;;5137307;27;20047;-70
2022/09/07 01:06:35;;;;;;;10.38;7.63;;;20.10;99.90;;;;;;5135684;27;20395;-70
2022/09/07 01:09:09;;;;;;;11.18;7.95;;;20.10;99.90;;;;;;5136073;27;20428;-70
2022/09/07 01:11:35;;;;;;;10.70;8.88;;;20.10;99.90;;;;;;5135869;27;20042;-70
2022/09/07 01:14:03;;;;;;;13.65;8.40;;;20.10;99.90;;;;;;5154391;27;20157;-70
2022/09/07 01:16:57;;;;;;;11.77;7.68;;;20.10;99.90;;;;;;5160218;27;20371;-70
2022/09/07 01:19:26;;;;;;;12.25;8.07;;;20.10;99.90;;;;;;5137384;27;20099;-70
2022/09/07 01:22:29;;;;;;;12.65;8.05;;;20.00;99.90;;;;;;5172948;27;20479;-69
2022/09/07 01:25:03;;;;;;;10.15;8.10;;;20.00;99.90;;;;;;5146578;27;20053;-70
2022/09/07 01:27:57;;;;;;;11.75;8.18;;;20.00;99.90;;;;;;5155179;27;20396;-70
2022/09/07 01:30:24;;;;;;;15.27;8.35;;;20.00;99.90;;;;;;5153711;27;20495;-70
2022/09/07 01:33:03;;;;;;;14.98;8.73;;;20.00;99.90;;;;;;5166414;27;20049;-70
2022/09/07 01:35:35;;;;;;;12.65;8.10;;;20.00;99.90;;;;;;5174893;27;20078;-71
2022/09/07 01:38:12;;;;;;;13.35;8.68;;;19.80;99.90;;;;;;5174564;27;20117;-70
2022/09/07 01:40:54;;;;;;;13.50;9.70;;;19.80;99.90;;;;;;5152556;27;20057;-69
2022/09/07 01:43:41;;;;;;;17.15;11.02;;;19.60;99.90;;;;;;5150526;27;20506;-69
2022/09/07 01:46:17;;;;;;;18.85;11.05;;;19.20;99.90;;;;;;5153979;27;20046;-70
2022/09/07 01:48:45;;;;;;;15.25;10.88;;;18.90;99.90;;;;;;5174270;27;20457;-69
2022/09/07 01:51:11;;;;;;;14.07;10.95;;;18.90;99.90;;;;;;5174185;27;20038;-69
2022/09/07 01:53:42;;;;;;;11.10;8.38;;;18.50;99.90;;;;;;5170264;27;20043;-70
2022/09/07 01:56:16;;;;;;;12.45;8.30;;;18.40;99.90;;;;;;5166817;27;20046;-70
2022/09/07 01:58:55;;;;;;;9.63;6.85;;;18.30;99.90;;;;;;5155067;27;20047;-69
2022/09/07 02:01:29;;;;;;;11.35;7.68;;;18.40;99.90;;;;;;5154120;27;20039;-69
2022/09/07 02:04:09;;;;;;;14.27;10.30;;;18.20;99.90;;;;;;5141328;27;20070;-70
2022/09/07 02:06:38;;;;;;;13.95;10.07;;;18.10;99.90;;;;;;5153661;27;20054;-69
2022/09/07 02:09:16;;;;;;;12.88;11.38;;;18.00;99.90;;;;;;5153855;27;20049;-69
2022/09/07 02:11:46;;;;;;;15.80;11.35;;;17.90;99.90;;;;;;5153355;27;20038;-70
2022/09/07 02:14:26;;;;;;;15.57;10.93;;;18.10;99.90;;;;;;5169308;27;20046;-69
2022/09/07 02:17:02;;;;;;;13.65;10.77;;;17.90;99.90;;;;;;5154601;27;20082;-70
2022/09/07 02:19:30;;;;;;;;;;;17.90;99.90;;;;;;5139047;27;20046;-69
2022/09/07 02:22:01;;;;;;;14.07;9.60;;;17.90;99.90;;;;;;5175647;27;19938;-69
2022/09/07 02:24:34;;;;;;;14.88;10.57;;;17.90;99.90;;;;;;5157373;27;20050;-69
2022/09/07 02:27:06;;;;;;;12.05;8.40;;;17.90;99.90;;;;;;5157324;27;20395;-69
2022/09/07 02:29:32;;;;;;;15.07;9.38;;;17.90;99.90;;;;;;5158744;27;20039;-70
2022/09/07 02:31:57;;;;;;;13.65;9.77;;;18.00;99.90;;;;;;5138866;27;20130;-69
2022/09/07 02:34:23;;;;;;;13.23;9.40;;;18.20;99.90;;;;;;5136391;27;20042;-69
2022/09/07 02:36:51;;;;;;;12.75;9.25;;;18.10;99.90;;;;;;5159265;27;20026;-70
2022/09/07 02:39:17;;;;;;;11.52;8.20;;;18.10;99.90;;;;;;5177895;27;20531;-69
2022/09/07 02:41:44;;;;;;;10.02;7.63;;;18.40;99.90;;;;;;5177269;27;20054;-70
2022/09/07 02:44:14;;;;;;;9.95;7.85;;;18.10;99.90;;;;;;5177128;27;20042;-70
2022/09/07 02:47:03;;;;;;;10.38;7.38;;;18.20;99.90;;;;;;5174294;27;20042;-69
2022/09/07 02:49:59;;;;;;;10.57;6.70;;;18.20;99.90;;;;;;5133534;27;20474;-69
2022/09/07 02:52:37;;;;;;;9.82;6.72;;;18.30;99.90;;;;;;5176421;27;20046;-69
2022/09/07 02:55:21;;;;;;;8.77;6.45;;;18.20;99.90;;;;;;5157315;27;20550;-69
2022/09/07 02:58:00;;;;;;;7.65;6.25;;;18.20;99.90;;;;;;5159095;27;20057;-69
2022/09/07 03:00:30;;;;;;;7.15;6.00;;;18.30;99.90;;;;;;5155279;27;20113;-70
2022/09/07 03:03:29;;;;;;;8.32;5.68;;;18.20;99.90;;;;;;5139231;27;20034;-69
2022/09/07 03:05:59;;;;;;;7.65;5.35;;;18.20;99.90;;;;;;5157159;27;20035;-70
2022/09/07 03:08:27;;;;;;;9.32;5.78;;;18.60;99.90;;;;;;5156115;27;20479;-70
2022/09/07 03:10:53;;;;;;;6.38;4.97;;;18.30;99.90;;;;;;5137949;27;20573;-70
2022/09/07 03:13:21;;;;;;;8.35;5.38;;;18.30;99.90;;;;;;5120416;27;20125;-69
2022/09/07 03:15:47;;;;;;;6.97;5.75;;;18.30;99.90;;;;;;5162149;27;20063;-70
2022/09/07 03:18:13;;;;;;;8.43;6.03;;;18.30;99.90;;;;;;5170751;27;20027;-69
2022/09/07 03:20:38;;;;;;;9.10;6.18;;;18.30;99.90;;;;;;5172548;27;20043;-69
2022/09/07 03:23:04;;;;;;;7.85;6.22;;;18.30;99.90;;;;;;5136514;27;20046;-69
2022/09/07 03:25:30;;;;;;;7.65;5.82;;;18.30;99.90;;;;;;5155800;27;20045;-69
2022/09/07 03:27:55;;;;;;;9.82;5.88;;;18.40;99.90;;;;;;5157198;27;20079;-69
2022/09/07 03:30:21;;;;;;;5.53;3.63;;;18.30;99.90;;;;;;5156214;27;20051;-69
2022/09/07 03:32:47;;;;;;;5.60;3.38;;;18.50;99.90;;;;;;5137204;27;20043;-69
2022/09/07 03:35:14;;;;;;;5.10;3.17;;;18.30;99.90;;;;;;5165860;27;20042;-69
2022/09/07 03:37:40;;;;;;;5.90;3.80;;;18.50;99.90;;;;;;5176138;27;20114;-69
2022/09/07 03:40:08;;;;;;;5.60;3.90;;;18.40;99.90;;;;;;5150067;27;20383;-70
2022/09/07 03:42:34;;;;;;;7.00;4.00;;;18.40;99.90;;;;;;5149191;27;20042;-70
2022/09/07 03:45:00;;;;;;;5.30;4.30;;;18.40;99.90;;;;;;5155925;27;20043;-69
2022/09/07 03:47:26;;;;;;;6.18;4.70;;;18.40;99.90;;;;;;5161033;27;20041;-69
2022/09/07 03:49:52;;;;;;;6.63;4.53;;;18.40;99.90;;;;;;5170138;27;20038;-70
2022/09/07 03:52:17;;;;;;;8.30;5.30;;;18.40;99.90;;;;;;5155380;27;20070;-69
2022/09/07 03:54:43;;;;;;;6.03;5.05;;;18.40;99.90;;;;;;5171269;27;20478;-69
2022/09/07 03:57:09;;;;;;;8.35;5.13;;;18.40;99.90;;;;;;5136801;27;20214;-69
2022/09/07 03:59:34;;;;;;;7.70;5.57;;;18.50;99.90;;;;;;5137950;27;20122;-70
2022/09/07 04:02:01;;;;;;;7.70;5.90;;;18.60;99.90;;;;;;5155356;27;20034;-69
2022/09/07 04:04:26;;;;;;;8.07;5.68;;;18.50;99.90;;;;;;5154709;27;20046;-69
2022/09/07 04:06:52;;;;;;;6.25;5.18;;;18.50;99.90;;;;;;5175083;27;20056;-69
2022/09/07 04:09:18;;;;;;;10.27;6.13;;;18.30;99.90;;;;;;5176395;27;20086;-69
2022/09/07 04:11:43;;;;;;;9.32;5.57;;;18.30;99.90;;;;;;5173697;27;20074;-69
2022/09/07 04:14:10;;;;;;;8.50;5.90;;;18.20;99.90;;;;;;5176085;27;20427;-70
2022/09/07 04:16:36;;;;;;;7.70;5.88;;;18.30;99.90;;;;;;5156298;27;20092;-70
2022/09/07 04:19:03;;;;;;;7.82;6.22;;;18.20;99.90;;;;;;5130504;27;20445;-69
2022/09/07 04:21:30;;;;;;;7.93;6.22;;;18.20;99.90;;;;;;5145144;27;20046;-69
2022/09/07 04:23:55;;;;;;;9.88;6.10;;;18.20;99.90;;;;;;5166887;27;20055;-69
2022/09/07 04:26:22;;;;;;;8.13;6.13;;;18.10;99.90;;;;;;5149558;27;20041;-69
2022/09/07 04:28:49;;;;;;;9.75;6.60;;;18.10;99.90;;;;;;5154804;27;20046;-69
2022/09/07 04:31:16;;;;;;;10.75;6.90;;;18.10;99.90;;;;;;5154782;27;20440;-70
2022/09/07 04:33:43;;;;;;;9.00;7.03;;;18.00;99.90;;;;;;5175514;27;20482;-70
2022/09/07 04:36:09;;;;;;;9.98;7.00;;;18.00;99.90;;;;;;5165366;27;20397;-69
2022/09/07 04:38:35;;;;;;;9.50;7.40;;;18.00;99.90;;;;;;5155288;27;20505;-69
2022/09/07 04:41:19;;;;;;;9.60;7.55;;;18.00;99.90;;;;;;5154700;27;20042;-69
2022/09/07 04:43:45;;;;;;;11.00;8.10;;;18.00;99.90;;;;;;5131897;27;20038;-69
2022/09/07 04:46:23;;;;;;;11.27;8.25;;;18.00;99.90;;;;;;5135158;27;20510;-69
2022/09/07 04:48:54;;;;;;;12.57;8.65;;;18.00;99.90;;;;;;5167138;27;20046;-69
2022/09/07 04:51:21;;;;;;;12.43;8.18;;;18.00;99.90;;;;;;5174689;27;20042;-69
2022/09/07 04:53:49;;;;;;;14.30;8.90;;;18.00;99.90;;;;;;5168635;27;20107;-69
2022/09/07 04:56:16;;;;;;;13.15;9.02;;;18.00;99.90;;;;;;5154232;27;20125;-70
2022/09/07 04:58:42;;;;;;;13.95;9.40;;;18.00;99.90;;;;;;5135683;27;20050;-70
2022/09/07 05:01:08;;;;;;;12.63;9.98;;;18.00;99.90;;;;;;5155613;27;20039;-70
2022/09/07 05:03:36;;;;;;;12.35;10.15;;;18.00;99.90;;;;;;5152358;27;20489;-70
2022/09/07 05:06:04;;;;;;;11.88;10.57;;;18.00;99.90;;;;;;5153344;27;20035;-70
2022/09/07 05:08:30;;;;;;;14.43;11.25;;;18.00;99.90;;;;;;5151832;27;20078;-70
2022/09/07 05:10:58;;;;;;;13.05;10.98;;;17.90;99.90;;;;;;5172303;27;20509;-71
2022/09/07 05:13:24;;;;;;;13.75;10.70;;;17.90;99.90;;;;;;5174395;27;20601;-70
2022/09/07 05:15:50;;;;;;;14.95;11.32;;;18.10;99.90;;;;;;5170245;27;20045;-69
2022/09/07 05:18:15;;;;;;;15.95;12.70;;;17.90;99.90;;;;;;5173834;27;20044;-69
2022/09/07 05:20:41;;;;;;;15.52;12.90;;;18.00;99.90;;;;;;5156345;27;20080;-70
2022/09/07 05:23:06;;;;;;;17.98;13.30;;;17.90;99.90;;;;;;5171351;27;20534;-70
2022/09/07 05:25:32;;;;;;;16.60;14.55;;;17.90;99.90;;;;;;5174958;27;20030;-69
2022/09/07 05:27:58;;;;;;;16.38;13.68;;;17.90;99.90;;;;;;5153685;27;20531;-69
2022/09/07 05:30:24;;;;;;;18.13;14.13;;;17.90;99.90;;;;;;5152341;27;20095;-69
2022/09/07 05:32:51;;;;;;;16.42;14.25;;;17.90;99.90;;;;;;5163386;27;20030;-69
2022/09/07 05:35:17;;;;;;;21.88;15.30;;;18.10;99.90;;;;;;5153473;27;20125;-69
2022/09/07 05:37:48;;;;;;;18.70;15.23;;;18.20;99.90;;;;;;5157123;27;20039;-69
2022/09/07 05:40:14;;;;;;;19.27;15.60;;;18.70;99.90;;;;;;5134154;27;20142;-71
2022/09/07 05:42:40;;;;;;;21.30;16.83;;;17.80;99.90;;;;;;5114803;28;20127;-70
2022/09/07 05:45:06;;;;;;;19.08;15.77;;;17.80;99.90;;;;;;5113758;28;20043;-70
2022/09/07 05:47:32;;;;;;;20.17;15.70;;;17.80;99.90;;;;;;5132425;28;20038;-70
2022/09/07 05:49:57;;;;;;;18.80;16.15;;;17.80;99.90;;;;;;5132674;27;20468;-70
2022/09/07 05:52:23;;;;;;;18.30;16.10;;;17.80;99.90;;;;;;5134480;27;20060;-70
2022/09/07 05:54:49;;;;;;;19.70;15.48;;;17.80;99.90;;;;;;5157337;27;20148;-70
2022/09/07 05:57:14;;;;;;;17.83;15.32;;;17.80;99.90;;;;;;5156801;27;20039;-70
2022/09/07 05:59:40;;;;;;;21.27;17.98;;;17.80;99.90;;;;;;5157421;27;20088;-70
2022/09/07 06:02:06;;;;;;;20.85;17.70;;;18.10;99.90;;;;;;5158182;27;20066;-70
2022/09/07 06:04:32;;;;;;;21.40;17.45;;;17.90;99.90;;;;;;5139659;27;20182;-70
2022/09/07 06:06:58;;;;;;;23.17;19.15;;;17.90;99.90;;;;;;5156570;27;20051;-70
2022/09/07 06:09:23;;;;;;;24.05;18.30;;;17.90;99.90;;;;;;5176358;27;20034;-70
2022/09/07 06:11:49;;;;;;;21.50;18.45;;;17.80;99.90;;;;;;5177625;27;20092;-69
2022/09/07 06:14:15;;;;;;;23.83;18.17;;;17.80;99.90;;;;;;5157799;27;20046;-70
2022/09/07 06:16:40;;;;;;;25.55;18.75;;;17.80;99.90;;;;;;5150350;27;20498;-69
2022/09/07 06:19:07;;;;;;;20.50;17.33;;;17.80;99.90;;;;;;5145489;27;20076;-70
2022/09/07 06:21:37;;;;;;;24.88;17.92;;;17.70;99.90;;;;;;5156606;27;20043;-69
2022/09/07 06:24:03;;;;;;;21.13;18.48;;;17.70;99.90;;;;;;5157010;27;20121;-70
2022/09/07 06:26:29;;;;;;;23.45;19.67;;;17.80;99.90;;;;;;5171382;27;20094;-70
2022/09/07 06:28:55;;;;;;;26.73;20.42;;;17.80;99.90;;;;;;5177784;27;20053;-70
2022/09/07 06:31:22;;;;;;;23.23;18.25;;;17.80;99.90;;;;;;5175088;27;20102;-70
2022/09/07 06:33:49;;;;;;;29.52;19.50;;;17.90;99.90;;;;;;5141359;27;20475;-69
2022/09/07 06:36:18;;;;;;;20.40;17.73;;;17.80;99.90;;;;;;5135351;27;20055;-69
2022/09/07 06:38:45;;;;;;;22.33;18.45;;;17.80;99.90;;;;;;5135493;27;20039;-69
2022/09/07 06:41:22;;;;;;;22.08;18.38;;;17.70;99.90;;;;;;5135428;27;20425;-69
2022/09/07 06:43:48;;;;;;;21.80;18.60;;;17.80;99.90;;;;;;5099307;27;20382;-69
2022/09/07 06:46:15;;;;;;;21.77;17.92;;;17.70;99.90;;;;;;5147250;27;20070;-69
2022/09/07 06:48:41;;;;;;;23.00;18.60;;;17.70;99.90;;;;;;5155140;27;20038;-69
2022/09/07 06:51:17;;;;;;;21.25;18.80;;;17.90;99.90;;;;;;5155831;27;20042;-69
2022/09/07 06:53:44;;;;;;;25.25;19.88;;;17.70;99.90;;;;;;5155592;27;20042;-69
2022/09/07 06:56:12;;;;;;;23.63;20.27;;;17.70;99.90;;;;;;5137619;27;20057;-69
2022/09/07 06:58:38;;;;;;;25.77;22.55;;;17.80;99.90;;;;;;5156242;27;20443;-69
2022/09/07 07:01:15;;;;;;;24.92;21.00;;;17.80;99.90;;;;;;5138190;27;20047;-69
2022/09/07 07:03:42;;;;;;;25.10;22.00;;;17.80;99.90;;;;;;5155617;27;20118;-69
2022/09/07 07:06:08;;;;;;;31.67;23.55;;;17.80;99.90;;;;;;5149971;27;20122;-69
2022/09/07 07:08:34;;;;;;;31.40;24.33;;;17.80;99.90;;;;;;5142875;27;20034;-69
2022/09/07 07:11:06;;;;;;;28.90;23.65;;;17.80;99.90;;;;;;5176889;27;20065;-69
2022/09/07 07:13:36;;;;;;;30.60;24.40;;;17.90;99.90;;;;;;5165842;27;20038;-69
2022/09/07 07:16:07;;;;;;;32.70;23.90;;;17.90;99.90;;;;;;5157047;27;20081;-69
2022/09/07 07:18:33;;;;;;;31.25;24.85;;;17.90;99.90;;;;;;5136687;27;20362;-69
2022/09/07 07:21:03;;;;;;;29.98;25.38;;;17.90;99.90;;;;;;5155527;27;20042;-69
2022/09/07 07:23:30;;;;;;;26.02;22.80;;;17.90;99.90;;;;;;5165135;27;20042;-69
2022/09/07 07:26:01;;;;;;;30.48;23.58;;;17.90;99.90;;;;;;5157559;27;20503;-73
2022/09/07 07:28:26;;;;;;;27.30;23.35;;;17.90;99.90;;;;;;5116386;27;20051;-70
2022/09/07 07:30:56;;;;;;;28.77;23.10;;;18.00;99.90;;;;;;5134930;27;20062;-70
2022/09/07 07:33:24;;;;;;;30.98;22.70;;;18.00;99.90;;;;;;5139461;27;20470;-69
2022/09/07 07:35:50;;;;;;;25.83;20.70;;;18.00;99.90;;;;;;5122927;27;20399;-69
2022/09/07 07:38:15;;;;;;;25.55;21.38;;;18.00;99.90;;;;;;5141958;27;20041;-70
2022/09/07 07:40:41;;;;;;;23.80;20.23;;;18.00;99.90;;;;;;5136875;27;20117;-70
2022/09/07 07:43:07;;;;;;;22.08;19.67;;;18.10;99.90;;;;;;5136990;27;20439;-70
2022/09/07 07:45:32;;;;;;;20.25;18.15;;;18.10;99.90;;;;;;5155246;27;20070;-70
2022/09/07 07:47:58;;;;;;;22.85;18.70;;;18.50;99.90;;;;;;5155325;27;20045;-69
2022/09/07 07:50:24;;;;;;;21.48;17.80;;;18.10;99.90;;;;;;5148197;27;20459;-70
2022/09/07 07:52:49;;;;;;;23.25;18.88;;;18.10;99.90;;;;;;5138153;27;20167;-70
2022/09/07 07:55:15;;;;;;;22.65;19.63;;;18.10;99.90;;;;;;5134023;27;20043;-70
2022/09/07 07:57:40;;;;;;;24.63;19.60;;;18.10;99.90;;;;;;5141211;27;20057;-70
2022/09/07 08:00:07;;;;;;;23.13;19.95;;;18.10;99.90;;;;;;5119499;27;20470;-70
2022/09/07 08:02:33;;;;;;;22.45;19.50;;;18.20;99.90;;;;;;5135459;27;20066;-70
2022/09/07 08:04:58;;;;;;;24.52;19.90;;;18.20;99.90;;;;;;5135749;27;20121;-70
2022/09/07 08:07:24;;;;;;;29.73;20.95;;;18.20;99.90;;;;;;5154977;27;20039;-70
2022/09/07 08:09:50;;;;;;;23.35;20.48;;;18.20;99.90;;;;;;5155408;27;20118;-70
2022/09/07 08:12:18;;;;;;;23.42;20.65;;;18.20;99.90;;;;;;5135580;27;20045;-70
2022/09/07 08:14:45;;;;;;;25.67;20.83;;;18.70;99.90;;;;;;5134492;27;20150;-70
2022/09/07 08:17:13;;;;;;;25.80;21.48;;;18.30;99.90;;;;;;5154798;27;20058;-70
2022/09/07 08:19:39;;;;;;;23.48;20.95;;;18.40;99.90;;;;;;5136322;27;20076;-70
2022/09/07 08:22:05;;;;;;;25.52;21.75;;;18.30;99.90;;;;;;5133242;27;20054;-70
2022/09/07 08:24:31;;;;;;;28.08;22.33;;;18.40;99.90;;;;;;5143247;27;20140;-70
2022/09/07 08:26:57;;;;;;;26.50;22.08;;;18.40;99.90;;;;;;5147565;27;20042;-69
2022/09/07 08:29:23;;;;;;;26.95;21.98;;;18.50;99.90;;;;;;5154609;27;20163;-70
2022/09/07 08:31:49;;;;;;;25.95;21.75;;;18.50;99.90;;;;;;5124472;27;20082;-70
2022/09/07 08:34:15;;;;;;;25.05;20.83;;;18.60;99.90;;;;;;5119315;27;20051;-70
2022/09/07 08:36:41;;;;;;;27.60;22.08;;;18.70;99.90;;;;;;5158597;27;20053;-70
2022/09/07 08:39:06;;;;;;;27.05;21.42;;;18.70;99.90;;;;;;5160267;27;20130;-71
2022/09/07 08:41:41;;;;;;;26.42;22.55;;;18.80;99.90;;;;;;5153612;27;20478;-68
2022/09/07 08:44:36;;;;;;;28.00;22.75;;;18.80;99.90;;;;;;5139073;27;20049;-68
2022/09/07 08:47:09;;;;;;;27.83;22.67;;;18.90;99.90;;;;;;5119834;27;20051;-68
2022/09/07 08:49:50;;;;;;;24.90;21.65;;;18.80;99.90;;;;;;5143394;27;20035;-68
2022/09/07 08:52:24;;;;;;;29.38;21.35;;;18.80;99.90;;;;;;5160587;27;20034;-68
2022/09/07 08:55:01;;;;;;;25.60;21.65;;;18.70;99.90;;;;;;5145284;27;20070;-72
2022/09/07 08:57:30;;;;;;;27.17;22.63;;;18.80;99.90;;;;;;5152402;27;20522;-68
2022/09/07 09:00:13;;;;;;;26.42;21.92;;;18.90;99.90;;;;;;5131867;27;20035;-68
2022/09/07 09:02:39;;;;;;;28.13;23.42;;;18.80;99.90;;;;;;5145577;27;20095;-69
2022/09/07 09:05:26;;;;;;;25.42;21.98;;;18.80;99.90;;;;;;5152350;27;20043;-69
2022/09/07 09:08:29;;;;;;;25.85;21.67;;;18.80;99.90;;;;;;5143694;27;20078;-70
2022/09/07 09:11:12;;;;;;;25.63;21.85;;;18.80;99.90;;;;;;5140552;27;20148;-69
2022/09/07 09:14:17;;;;;;;27.95;22.42;;;18.80;99.90;;;;;;5130608;27;20035;-70
2022/09/07 09:16:51;;;;;;;24.80;22.08;;;19.00;99.90;;;;;;5142296;27;20046;-70
2022/09/07 09:19:50;;;;;;;25.00;22.30;;;19.10;99.90;;;;;;5136845;27;20038;-68
2022/09/07 09:22:19;;;;;;;25.40;22.25;;;19.20;99.90;;;;;;5146607;27;20065;-70
2022/09/07 09:24:56;;;;;;;27.73;21.60;;;19.30;99.90;;;;;;5143560;27;20054;-70
2022/09/07 09:27:21;;;;;;;23.42;20.30;;;19.50;99.90;;;;;;5139522;27;20050;-70
2022/09/07 09:29:47;;;;;;;24.27;19.98;;;19.70;99.90;;;;;;5139572;27;20130;-70
2022/09/07 09:32:36;;;;;;;21.85;18.90;;;20.00;99.90;;;;;;5151179;27;20061;-70
2022/09/07 09:35:11;;;;;;;22.00;19.65;;;20.20;99.90;;;;;;5141867;27;20444;-70
2022/09/07 09:37:39;;;;;;;22.25;16.45;;;20.40;99.90;;;;;;5152954;27;20425;-72
2022/09/07 09:40:08;;;;;;;23.52;19.63;;;20.60;99.90;;;;;;5157449;27;20065;-76
2022/09/07 09:42:35;;;;;;;22.65;19.38;;;20.70;99.90;;;;;;5151968;27;20110;-79
2022/09/07 09:45:24;;;;;;;22.85;18.67;;;20.70;99.90;;;;;;5122931;27;20035;-80
2022/09/07 09:47:53;;;;;;;21.70;18.70;;;20.70;99.90;;;;;;5140045;27;20049;-78
2022/09/07 09:50:35;;;;;;;17.10;14.27;;;20.70;99.90;;;;;;5140490;27;20088;-79
2022/09/07 09:53:01;;;;;;;21.48;17.33;;;20.70;99.90;;;;;;5153690;27;20053;-80
2022/09/07 09:55:31;;;;;;;21.42;17.50;;;20.70;99.90;;;;;;5140762;27;20126;-80
2022/09/07 09:58:03;;;;;;;19.25;17.17;;;20.90;99.90;;;;;;5109089;27;20042;-78
2022/09/07 10:00:32;;;;;;;20.08;16.85;;;21.00;99.90;;;;;;5138155;27;20483;-80
2022/09/07 10:03:14;;;;;;;19.60;16.50;;;21.10;99.90;;;;;;5138531;27;20390;-80
2022/09/07 10:05:42;;;;;;;16.67;14.88;;;21.20;99.90;;;;;;5138512;27;20118;-81
2022/09/07 10:08:17;;;;;;;17.42;15.52;;;21.30;99.90;;;;;;5138726;27;20046;-79
2022/09/07 10:11:06;;;;;;;16.70;14.23;;;21.40;99.90;;;;;;5138444;27;20046;-79
2022/09/07 10:13:34;;;;;;;15.68;13.90;;;21.40;99.90;;;;;;5156054;27;20111;-79
2022/09/07 10:16:05;;;;;;;15.63;14.02;;;21.40;99.90;;;;;;5156515;27;20047;-79
2022/09/07 10:18:38;;;;;;;15.98;13.25;;;21.60;99.90;;;;;;5156369;27;20038;-80
2022/09/07 10:21:22;;;;;;;14.15;12.73;;;21.60;99.90;;;;;;5156926;27;20058;-78
2022/09/07 10:24:04;;;;;;;14.85;12.52;;;21.60;99.90;;;;;;5156668;27;20478;-79
2022/09/07 10:26:35;;;;;;;14.00;12.00;;;21.60;99.90;;;;;;5120627;27;20085;-79
2022/09/07 10:29:30;;;;;;;14.70;11.85;;;21.60;99.90;;;;;;5156569;27;20034;-79
2022/09/07 10:32:22;;;;;;;12.70;11.23;;;21.60;99.90;;;;;;5139922;27;20062;-78
2022/09/07 10:34:50;;;;;;;10.85;9.20;;;21.90;99.90;;;;;;5135685;27;20421;-79
2022/09/07 10:37:38;;;;;;;10.48;8.35;;;22.40;99.90;;;;;;5135323;27;20047;-78
2022/09/07 10:40:16;;;;;;;8.88;7.97;;;22.70;99.90;;;;;;5117053;27;20035;-78
2022/09/07 10:42:48;;;;;;;8.70;7.22;;;22.90;99.90;;;;;;5133204;27;20569;-79
2022/09/07 10:45:24;;;;;;;7.53;5.65;;;23.00;99.90;;;;;;5133590;27;20043;-79
2022/09/07 10:48:16;;;;;;;9.93;6.85;;;23.00;99.90;;;;;;5117222;27;20347;-79
2022/09/07 10:51:02;;;;;;;10.13;7.38;;;23.20;99.90;;;;;;5131306;27;20058;-78
2022/09/07 10:53:46;;;;;;;8.45;7.03;;;23.40;99.90;;;;;;5150685;27;20483;-79
2022/09/07 10:56:18;;;;;;;13.60;6.90;;;23.60;99.90;;;;;;5135590;27;20084;-79
2022/09/07 10:59:04;;;;;;;7.45;6.50;;;23.70;99.90;;;;;;5135617;27;20039;-78
2022/09/07 11:01:37;;;;;;;7.75;6.45;;;23.70;99.90;;;;;;5116427;27;20047;-79
2022/09/07 11:04:27;;;;;;;7.95;6.65;;;23.70;99.90;;;;;;5134104;27;20447;-80
2022/09/07 11:07:04;;;;;;;10.38;6.35;;;23.80;99.90;;;;;;5173312;27;20403;-79
2022/09/07 11:09:29;;;;;;;7.03;5.43;;;23.90;99.90;;;;;;5177013;27;20042;-80
2022/09/07 11:12:05;;;;;;;6.30;5.32;;;24.00;99.90;;;;;;5176680;27;20046;-79
2022/09/07 11:15:04;;;;;;;6.93;5.80;;;24.00;99.90;;;;;;5179485;27;20086;-81
2022/09/07 11:17:36;;;;;;;6.53;5.53;;;24.10;99.90;;;;;;5115876;27;20100;-73
2022/09/07 11:20:29;;;;;;;7.60;5.30;;;24.40;99.90;;;;;;5159670;27;20158;-72
2022/09/07 11:23:20;;;;;;;6.75;5.47;;;24.60;99.90;;;;;;5128848;27;20099;-72
2022/09/07 11:26:28;;;;;;;6.47;5.05;;;25.00;99.90;;;;;;5138821;27;20451;-72
2022/09/07 11:28:55;;;;;;;5.57;4.88;;;25.30;99.90;;;;;;5051351;28;20389;-73
2022/09/07 11:31:26;;;;;;;7.40;5.18;;;25.40;99.90;;;;;;5067837;28;20060;-72
2022/09/07 11:34:01;;;;;;;5.30;4.40;;;25.50;99.90;;;;;;5114800;27;20046;-72
2022/09/07 11:36:32;;;;;;;6.13;4.50;;;25.60;99.90;;;;;;5152662;27;20402;-73
2022/09/07 11:39:11;;;;;;;5.70;4.18;;;25.60;99.90;;;;;;5152549;27;20050;-73
2022/09/07 11:41:48;;;;;;;7.82;5.47;;;25.50;99.90;;;;;;5133964;27;20379;-72
2022/09/07 11:44:23;;;;;;;5.60;5.00;;;25.50;99.90;;;;;;5133938;27;20047;-73
2022/09/07 11:47:04;;;;;;;6.75;4.57;;;25.50;99.90;;;;;;5131478;27;20039;-73
2022/09/07 11:49:29;;;;;;;6.30;4.75;;;26.00;99.90;;;;;;5115609;27;20049;-79
2022/09/07 11:52:01;;;;;;;6.82;4.50;;;26.30;99.90;;;;;;5131399;27;20481;-78
2022/09/07 11:54:42;;;;;;;6.13;4.10;;;26.30;99.90;;;;;;5175689;27;20398;-78
2022/09/07 11:57:14;;;;;;;6.15;4.68;;;26.00;99.90;;;;;;5154879;27;20045;-79
2022/09/07 11:59:47;;;;;;;7.57;4.10;;;25.70;99.90;;;;;;5143973;27;20051;-79
2022/09/07 12:02:45;;;;;;;4.97;3.70;;;25.50;99.90;;;;;;5148974;27;20410;-79
2022/09/07 12:05:23;;;;;;;6.32;3.25;;;25.30;99.90;;;;;;5147125;27;20131;-78
2022/09/07 12:07:49;;;;;;;5.38;2.97;;;25.10;99.90;;;;;;5141836;27;20328;-79
2022/09/07 12:10:34;;;;;;;4.82;2.70;;;25.10;99.90;;;;;;5153824;27;20065;-78
2022/09/07 12:13:16;;;;;;;3.83;2.53;;;24.90;99.90;;;;;;5134201;27;20391;-79
2022/09/07 12:16:07;;;;;;;3.72;2.00;;;25.30;99.90;;;;;;5154901;27;20043;-79
2022/09/07 12:19:05;;;;;;;4.00;2.13;;;26.50;99.90;;;;;;5154824;27;20087;-78
2022/09/07 12:21:50;;;;;;;3.10;2.00;;;27.40;99.90;;;;;;5133651;27;20063;-79
2022/09/07 12:24:44;;;;;;;3.90;2.30;;;27.20;99.90;;;;;;5132907;27;20043;-78
2022/09/07 12:27:29;;;;;;;3.30;2.08;;;27.20;99.90;;;;;;5149304;27;20050;-79
2022/09/07 12:30:00;;;;;;;;;;;26.90;99.90;;;;;;5131397;27;20034;-80
2022/09/07 12:32:50;;;;;;;5.63;2.15;;;26.80;99.90;;;;;;5131172;27;19930;-79
2022/09/07 12:35:40;;;;;;;4.25;2.00;;;26.70;99.90;;;;;;5116099;27;20077;-79
2022/09/07 12:38:12;;;;;;;4.75;1.95;;;26.70;99.90;;;;;;5117990;27;20071;-80
2022/09/07 12:41:02;;;;;;;3.97;1.70;;;26.60;99.90;;;;;;5133539;27;20565;-81
2022/09/07 12:43:45;;;;;;;4.07;1.90;;;26.30;99.90;;;;;;5133394;27;20043;-80
2022/09/07 12:46:33;;;;;;;2.35;1.65;;;25.90;99.90;;;;;;5131860;27;20062;-79
2022/09/07 12:49:10;;;;;;;3.28;1.80;;;25.70;99.90;;;;;;5107618;27;20044;-79
2022/09/07 12:51:38;;;;;;;3.10;2.05;;;25.70;99.90;;;;;;5095317;28;20131;-79
2022/09/07 12:54:31;;;;;;;3.00;2.00;;;25.70;99.90;;;;;;5100990;27;20039;-79
2022/09/07 12:57:00;;;;;;;2.97;1.75;;;25.70;99.90;;;;;;5095687;27;20044;-79
2022/09/07 12:59:45;;;;;;;3.40;1.70;;;25.80;99.90;;;;;;5117204;27;20047;-79
2022/09/07 13:02:49;;;;;;;2.88;1.88;;;25.80;99.90;;;;;;5081096;28;20063;-79